Terminal Aerodrome Forecast
Issued by NWS

Home | Current Version | Previous Version | Text Only | Print | Product List | Glossary On
Versions: 1 2 3 4 5 6 7 8 9 10 11 12 13
000
FTUS42 KTBW 010539
TAFLAL
TAF
KLAL 010539Z 0106/0206 VRB03KT P6SM FEW020 SCT200
     FM011500 25006KT P6SM SCT030 SCT250
     FM011800 27008KT P6SM VCTS SCT030CB SCT100 BKN250
     FM020100 VRB03KT P6SM FEW030 SCT250
      AMD NOT SKED TIL 011200=

USA.gov is the U.S. government's official web portal to all federal, state and local government web resources and services.